Aviation Digital Data Service (ADDS)

Output produced by METARs form (0956 UTC 19 January 2019)
found at http://www.aviationweather.gov/metar/data/
 
MMAA 190842Z 00000KT 7SM SCT300 23/22 A2990 RMK SLP130 57006 957 8/002 HZY
TAF MMAA 190509Z 1906/2012 03005KT P6SM BKN300 TX29/1919Z TN22/1912Z 
     FM191600 23010KT P6SM SCT100 OVC300 
     FM200300 03005KT P6SM OVC300
       
MMAS 190845Z 03003KT 10SM BKN200 08/05 A3026 RMK 8/002
TAF MMAS 190459Z 1906/2006 16005KT P6SM SCT200 
     FM191800 33010KT P6SM BKN200 
     FM200300 03008KT 6SM HZ BKN200
       
TAF MMSL 190503Z 1906/2006 35005KT 6SM HZ BKN250 
     FM191800 33010KT P6SM BKN250 
     FM200300 35005KT 6SM HZ BKN250
       
MMSD 190547Z 24007KT 12SM SCT250 19/09 A3007 RMK SLP169 52014 963 8/008
TAF MMSD 190503Z 1906/2006 25005KT P6SM SCT200 
     FM191900 34010KT P6SM BKN250 
     FM200300 16005KT 6SM HZ BKN200
       
MMCP 190640Z 16005KT 7SM SKC 18/17 A2999
TAF MMCP 190517Z 1906/2006 00000KT 6SM HZ SKC 
     BECMG 1910/1911 09010KT 
     FM191900 34015KT 6SM HZ SCT030 
     FM200300 34010G25KT 6SM HZ BKN030CB 
     TEMPO 2003/2006 5SM TSRA BKN020CB
       
MMUN 190848Z 11006KT 7SM SKC 22/20 A2998 RMK SLP151 57017 990 SC
TAF MMUN 190440Z 1906/2012 10005KT P6SM SCT015 TX26/1918Z TN19/1912Z 
     FM191600 13010KT P6SM SCT015 SCT250 
     FM200100 13005KT P6SM SCT015 BKN250 
     FM200600 30010KT P6SM SCT015 BKN250 
     TEMPO 2008/2012 5SM RA BKN015
       
MMCM 190906Z RTD 00000KT 3SM BR SCT004 OVC008 21/21 A2996 RMK SLP147 5//// 987 6//// 8/6//
TAF AMD MMCM 190921Z 1909/2006 00000KT 3SM BR HZ SCT004 OVC008 
     TEMPO 1910/1914 1SM BR BKN003 
     FM191800 12010KT 6SM HZ SCT020 
     FM200300 12005KT 6SM HZ SCT015 BKN100
       
TAF MMCU 190454Z 1906/2006 33012KT P6SM SKC 
     FM191200 36008KT P6SM SKC 
     FM192000 13010KT P6SM SKC 
     FM200200 08005KT P6SM SKC
       
MMCE 190645Z 06009KT 7SM SKC 23/20 A2996
TAF MMCE 190517Z 1906/2006 06010KT P6SM SKC 
     FM191200 12010KT 6SM HZ SCT020 
     FM191800 04010KT P6SM SCT030 
     FM200300 34010G20KT 6SM HZ BKN020 
     TEMPO 2003/2006 5SM TSRA BKN010CB
       
TAF MMCS 190454Z 1906/2006 33015KT P6SM SCT100 
     FM191200 36012KT P6SM SKC 
     FM192000 18008KT P6SM SKC 
     FM200200 16005KT P6SM SCT250
       
TAF MMCN 190503Z 1906/2006 30005KT P6SM SCT200 
     FM191800 34010KT P6SM SKC 
     FM200300 03005KT P6SM SKC
       
TAF MMCV 190536Z 1906/2006 16010KT 6SM HZ SCT015 BKN080 
     BECMG 1910/1911 33008KT 
     TEMPO 1912/1915 1SM BR BKN005 BKN010 
     FM191600 34010G25KT P6SM SCT020 BKN200 
     FM200300 33020KT 6SM HZ BKN200
       
TAF MMIA 190459Z 1906/2006 02005KT 5SM HZ BKN200 
     FM191800 23010KT P6SM SCT020 BKN200 
     FM200300 23005KT 6SM HZ BKN200
       
MMCZ 190900Z RTD 14004KT 7SM FEW015 20/19 A2996 RMK SLP149 57020 990 8/500
TAF MMCZ 190440Z 1906/2012 12005KT P6SM SCT015 
     FM191600 08010KT P6SM SCT015 SCT250 
     FM200400 30005KT P6SM SCT015 BKN250 
     FM200600 30010KT P6SM SCT015 
     PROB40 2008/2012 5SM TSRA BKN015CB
       
TAF MMCB 190452Z 1906/2006 00000KT P6SM SCT200 
     FM191800 03010KT P6SM SCT020 SCT200 
     TEMPO 1922/2002 6SM -RA BKN020 
     FM200300 03005KT 6SM HZ SCT015 BKN090
       
MMCL 190442Z 00000KT 10SM SCT250 19/17 A2998 RMK 8/002 HZY
TAF MMCL 190429Z 1906/2006 00000KT P6SM SCT250 
     FM192000 28008KT P6SM SKC 
     FM200200 00000KT P6SM SKC
       
TAF MMDO 190503Z 1906/2006 22005KT 6SM HZ BKN200 
     FM191800 33010KT P6SM SCT020 BKN200 
     FM200300 33005KT P6SM BKN200
       
MMGL 190844Z 00000KT 8SM SKC 10/07 A3020 RMK SLP141 54000 958
TAF MMGL 190421Z 1906/2012 00000KT P6SM SCT080 BKN300 TX23/1921Z TN09/1913Z 
     FM191800 36010KT P6SM BKN250 
     FM200200 36005KT P6SM BKN250
       
TAF MMGM 190503Z 1906/2006 00000KT 5SM HZ SKC 
     FM191800 23010KT P6SM SKC 
     FM200300 23005KT P6SM SKC
       
MMHO 190840Z 17005KT 10SM FEW200 15/09 A3011 RMK SLP196 52003 951 8/004
TAF MMHO 190429Z 1906/2006 26005KT P6SM SCT200 
     FM192000 24010KT P6SM SKC 
     FM200200 24005KT P6SM SCT250
       
TAF MMBT 190452Z 1906/2006 20010KT 6SM HZ SKC 
     FM191800 23010KT 6SM HZ SCT020 
     TEMPO 1920/1924 BKN020 
     FM200300 23005KT 6SM HZ SKC
       
MMLP 190545Z 00000KT 10SM SKC 14/12 A3007 RMK SLP183 52008 970
TAF MMLP 190429Z 1906/2006 18005KT P6SM SKC 
     FM191700 18010KT P6SM SKC 
     FM200200 36005KT P6SM SKC
       
MMLO 190540Z 00000KT 8SM SCT250 11/06 A3030 RMK SLP160 52013 961 8/008
TAF MMLO 190459Z 1906/2006 00000KT 6SM HZ SCT250 
     FM191800 03010KT P6SM BKN030 BKN200 
     FM200200 03005KT 6SM HZ SCT030 BKN200
       
TAF MMLT 190503Z 1906/2006 00000KT P6SM SKC 
     FM191800 04010KT P6SM SKC 
     FM200300 03005KT P6SM SKC
       
TAF MMLM 190503Z 1906/2006 30010KT P6SM SKC 
     FM191900 33015KT P6SM SKC 
     FM200300 33008KT P6SM SKC
       
TAF MMZO 190421Z 1906/2006 36005KT P6SM BKN250 
     FM191700 24010KT P6SM SCT080 OVC250 
     FM200200 36005KT P6SM OVC250
       
TAF COR MMMA 190538Z 1906/2006 16010KT 6SM HZ SCT020 SCT070 BKN200 
     FM191200 34010G20KT 4SM BR BKN010 BKN030 
     TEMPO 1912/1915 2SM BR -RA BKN005 OVC010 
     FM191500 33025G35KT 5SM HZ BKN015 
     FM191800 34030G40KT 6SM HZ SCT020 BKN200 
     FM200300 34015G25KT 6SM HZ BKN200
       
MMMZ 190845Z 06004KT 2SM BR SCT240 15/15 A2997 RMK SLP149 57003 909 8/002
TAF AMD MMMZ 190858Z 1909/2012 06005KT 2SM BR SCT010 BKN250 TX28/1919Z
TN15/1912Z 
     TEMPO 1909/1912 1SM BR BKN005 
     FM191300 00000KT 5SM HZ BKN250 
     FM191600 23010KT P6SM SKC 
     FM200200 03005KT P6SM SKC
       
MMMD 190848Z 10006KT 7SM SKC 17/16 A2996 RMK SLP153 57012 992
TAF MMMD 190440Z 1906/2012 06005KT P6SM SKC TX30/1920Z TN18/1912Z 
     FM191600 13010KT P6SM SCT020 SCT300 
     FM192300 36012KT P6SM SCT020 BKN300 
     PROB40 2000/2004 5SM SHRA BKN020 
     FM200500 36010KT P6SM SCT020 BKN250
       
MMML 190847Z 29005KT 10SM SKC 14/08 A3027 RMK SLP251 52003 941
TAF MMML 190429Z 1906/2006 30005KT P6SM SCT250 
     FM192000 34010KT P6SM BKN250 
     FM200300 30005KT P6SM SCT250
       
MMMX 190845Z 33005KT 10SM SKC 13/04 A3030 NOSIG RMK SLP100 57007 953
TAF MMMX 190509Z 1906/2012 10005KT P6SM SCT020 BKN250 TX20/1920Z TN07/1912Z 
     FM191600 36012KT P6SM SCT100 OVC250 
     PROB40 1922/2002 5SM TSRA BKN020CB 
     FM200200 36005KT P6SM SCT020 OVC250
       
MMTO 190848Z 00000KT 5SM SCT200 04/01 A3036 RMK SLP140 57004 955 8/002 HZY
TAF MMTO 190509Z 1906/2012 00000KT P6SM SCT200 TX17/1921Z TN04/1912Z 
     FM190900 00000KT 3SM BR HZ SCT015 BKN250 
     FM191600 36010KT P6SM SCT100 OVC250 
     FM200200 36005KT 5SM HZ SCT100 BKN250
       
TAF MMMT 190517Z 1906/2006 02010KT 6SM HZ SCT030 
     FM191000 00000KT 4SM BR SCT015 
     TEMPO 1912/1915 1SM BR BKN010 
     FM191800 03010KT P6SM BKN030 
     BECMG 1921/1922 34010G25KT 
     TEMPO 1923/2003 6SM TSRA BKN020CB 
     FM200300 34015G30KT 6SM HZ BKN020 BKN080
       
TAF MMMV 190454Z 1906/2006 36008KT P6SM BKN250 
     FM191500 36015KT P6SM SKC 
     FM192200 36010KT P6SM SKC 
     FM200200 36005KT P6SM SKC
       
MMAN 190540Z 35005KT 6SM FEW070 16/15 A2991 RMK SLP/// 5//// 9// 8/030 HZY
TAF MMAN 190454Z 1906/2006 30005KT 6SM HZ BKN250 
     FM191600 34015KT P6SM SCT250 
     FM200200 04005KT P6SM SKC
       
MMMY 190841Z 30006KT 7SM SKC 16/// A2984 RMK SLP/// 5//// 9// HZY
TAF MMMY 190454Z 1906/2012 30005KT P6SM BKN250 TX15/1912Z TN10/1912Z 
     FM191600 33015KT P6SM SCT250 
     FM200200 03005KT P6SM SKC
       
MMMM 190844Z 00000KT 6SM SKC 07/07 A3024 RMK SLP144 57007 967 HZY AC/CI
TAF MMMM 190421Z 1906/2012 00000KT P6SM SCT080 BKN250 
     FM191800 36010KT P6SM BKN250 
     FM200200 36005KT P6SM BKN250
       
TAF MMNL 190536Z 1906/2006 16005KT P6SM BKN200 
     FM191200 33020KT 6SM HZ SCT015 BKN200 
     FM191800 33025G35KT P6SM BKN200 
     FM200300 33025KT P6SM BKN200
       
TAF MMOX 190452Z 1906/2006 00000KT 6SM HZ SCT100 OVC200 
     FM191800 03010KT P6SM SCT020 BKN200 
     TEMPO 1922/2002 6SM -RA BKN020CB 
     FM200300 03005KT 6SM HZ SCT020 BKN200
       
TAF MMPG 190536Z 1906/2006 09005KT 6SM HZ BKN200 
     FM191200 33020G30KT P6SM BKN030 BKN200 
     FM191800 33025G35KT P6SM BKN200 
     FM200300 33010G20KT P6SM BKN200
       
TAF MMPA 190536Z 1906/2006 00000KT 6SM HZ SKC 
     FM191000 33005KT 5SM HZ BKN010 
     TEMPO 1912/1915 1/2SM FG BKN005 OVC010 
     FM191800 34020G30KT 6SM HZ BKN020 BKN200 
     TEMPO 1922/2002 6SM TSRA BKN010CB 
     FM200300 34030KT 6SM HZ BKN015 OVC070
       
TAF MMPB 190452Z 1906/2006 33005KT 6SM HZ SCT200 
     FM191800 03010KT P6SM SCT030 SCT200 
     TEMPO 1922/2002 6SM TSRA BKN020CB 
     FM200300 03005KT 6SM HZ BKN020 BKN100
       
MMPS 190440Z 00000KT 5SM SCT025 BKN070 27/21 A3004 RMK 8/130 HZY
TAF MMPS 190452Z 1906/2006 00000KT 5SM HZ SCT020 BKN070 
     FM191800 20010KT P6SM SCT020 SCT200 
     TEMPO 1921/2001 BKN020 
     FM200300 23005KT 6SM HZ SCT200
       
MMPR 190843Z 01004KT 12SM SKC 19/19 A2996 RMK SLP143 57007 956
TAF MMPR 190421Z 1906/2012 02005KT P6SM BKN250 TX26/1921Z TN19/1912Z 
     FM191600 20010KT P6SM SCT080 BKN250 
     FM200400 03005KT P6SM BKN250
       
MMQT 190844Z 00000KT 6SM BKN250 11/06 A3028 RMK 8/002
TAF MMQT 190459Z 1906/2006 30010KT 6SM HZ SCT020 SCT100 BKN250 
     TEMPO 1912/1916 BKN020 
     FM191800 03010KT P6SM BKN025 BKN200 
     TEMPO 1922/2002 6SM -RA BKN020CB 
     FM200300 03005KT 6SM HZ BKN020 BKN200
       
TAF MMRX 190536Z 1906/2006 12012KT 6SM HZ BKN200 
     FM191200 33010G20KT 5SM HZ BKN010 BKN200 
     TEMPO 1912/1915 1SM BR BKN005 
     FM191800 33025G35KT 6SM HZ SCT020 BKN200 
     FM200300 33030KT 6SM HZ BKN200
       
MMIO 190740Z 18002KT 10SM SKC 12/04 A3016
TAF MMIO 190454Z 1906/2006 36005KT P6SM BKN250 
     FM191600 36012KT P6SM SKC 
     FM200200 36005KT P6SM SKC
       
MMSP 190845Z 04006KT 8SM SCT090 BKN230 13/05 A3020 RMK SLP098 54000 990 8/038
TAF COR MMSP 190551Z 1906/2012 22005KT P6SM SCT080 BKN250 TX20/1921Z TN09/1912Z 
     FM191800 36010KT P6SM SCT250 
     FM200200 03005KT P6SM SKC
       
MMTM 190440Z 00000KT 5SM SCT100 BKN200 22/21 A2991 RMK 8/038 BR
TAF MMTM 190509Z 1906/2006 08005KT 5SM HZ SCT015 BKN250 
     TEMPO 1910/1914 1SM BR BKN008 
     FM191400 36010KT 5SM HZ BKN015 OVC080 
     TEMPO 1915/1919 3SM RA 
     FM192000 36015G25KT P6SM SCT015 BKN250 
     FM200200 36010KT P6SM BKN250
       
MMTP 190859Z RTD 00000KT 10SM SKC 21/21 A2989 RMK SLP144 57010 958 HZY RTS
TAF MMTP 190440Z 1906/2012 00000KT P6SM SCT030 
     FM191900 24010KT P6SM SCT030 
     FM200100 00000KT P6SM SCT030
       
TAF MMEP 190459Z 1906/2006 00000KT 6SM HZ SCT010 BKN250 
     TEMPO 1911/1915 1/2SM FG VV002 
     FM191800 34010KT P6SM BKN200 
     FM200300 33005KT 6SM HZ BKN200
       
MMTJ 190840Z 00000KT 5SM SKC 11/10 A3027 RMK SLP261 50001 912 HZ
TAF MMTJ 190429Z 1906/2012 36005KT 6SM HZ SCT015 TX20/1920Z TN13/1912Z 
     FM191500 30010KT P6SM SCT250 
     FM192000 30010KT P6SM BKN250 
     FM200200 30005KT 6SM HZ SCT250
       
TAF MMTC 190454Z 1906/2006 06005KT P6SM SCT250 
     FM191600 36012KT P6SM SKC 
     FM200200 06005KT P6SM SKC
       
MMTG 190440Z 30005KT 7SM SKC 19/16 A3003
TAF MMTG 190440Z 1906/2006 30005KT P6SM SKC 
     FM191600 33010KT P6SM SCT020 
     FM200200 30005KT P6SM SCT020 BKN080 
     PROB40 2002/2006 5SM RA BKN020
       
TAF MMPN 190459Z 1906/2006 00000KT 6SM HZ SCT100 BKN250 
     FM191800 20010KT P6SM SCT020 BKN200 
     FM200300 23005KT 6SM HZ BKN200
       
MMVR 190441Z 31004KT 6SM SKC 21/20 A2999 RMK HZY
TAF MMVR 190509Z 1906/2006 33005KT P6SM SCT010 SCT250 TX29/1920Z TN19/1912Z 
     TEMPO 1910/1914 1SM BR BKN008 
     FM191600 33010KT P6SM SCT020 BKN250 
     FM192100 36015G25KT 5SM BLSA BKN020 OVC080 
     TEMPO 1922/2002 5SM RA 
     FM200200 36015KT 5SM HZ BKN020 BKN250
       
TAF MMVA 190517Z 1906/2006 10005KT 6SM HZ SKC 
     FM191000 00000KT 3SM BR SCT005 OVC010 
     TEMPO 1910/1914 1/2SM FG VV001 
     FM191500 06005KT 5SM HZ BKN015 
     FM191800 08010KT 6SM HZ SCT025 
     FM192200 34015KT 6SM HZ BKN025 
     TEMPO 1922/2002 6SM TSRA BKN015CB 
     FM200300 34015G25KT 6SM -RA BKN020 OVC080
       
MMZC 190842Z 20007KT 8SM BKN200 07/04 A3025 RMK 8/001
TAF MMZC 190421Z 1906/2012 20005KT P6SM BKN250 TX16/1920Z TN07/1912Z 
     FM191600 36010KT P6SM BKN250 
     FM200300 06008KT P6SM SCT250
       
TAF MMZH 190452Z 1906/2006 05005KT 6SM HZ BKN200 
     FM191800 23010KT 6SM HZ SCT020 BKN200 
     FM200300 23005KT 6SM HZ BKN200